Atlantic Highlands, New Jersey
Current Conditions -  °F | °C
As of 9:35 AM on Wednesday 22 Oct 2014 (Local Time) from KBLM Reporting Station
Overcast Overcast  
Wind Chill: 55°   Ceiling: 1500
Heat Index: 55°   Visibility: 9mi
Dew Point: 48°   Wind: 16mph
Humidity: 77%   Direction: 30°NNE
Pressure: 29.89"   Gusts: 24mph
Location:  40.41°N, 74.03°W
Report Text: KBLM 221335Z AUTO 03014G21KT 9SM SCT008 OVC015 13/09 A2989 RMK AO1 P0016
Loading
Personal Weather Stations






























Interactive Weather Map
Tropical Storm Tracking
New forecast layout! Learn more

10-Day Weather Forecast

Advertisements
Track Severe Weather on mobile